createdAt,value
2022-11-22T00:01:23.554Z,8.00
2022-11-22T00:03:52.039Z,8.00
2022-11-22T00:06:23.086Z,8.10
2022-11-22T00:08:51.421Z,8.00
2022-11-22T00:11:48.582Z,8.00
2022-11-22T00:14:21.077Z,8.00
2022-11-22T00:16:51.666Z,8.00
2022-11-22T00:19:19.960Z,8.10
2022-11-22T00:21:54.720Z,8.10
2022-11-22T00:24:23.072Z,8.10
2022-11-22T00:26:51.455Z,8.10
2022-11-22T00:29:21.123Z,8.20
2022-11-22T00:31:50.289Z,8.20
2022-11-22T00:34:24.114Z,8.20
2022-11-22T00:36:52.376Z,8.20
2022-11-22T00:39:21.121Z,8.10
2022-11-22T00:41:51.101Z,8.10
2022-11-22T00:44:20.936Z,8.10
2022-11-22T00:46:49.524Z,8.10
2022-11-22T00:49:19.694Z,8.00
2022-11-22T00:51:56.787Z,8.00
2022-11-22T00:54:26.741Z,7.90
2022-11-22T00:56:55.016Z,7.90
2022-11-22T00:59:26.296Z,7.80
2022-11-22T01:01:55.819Z,7.80
2022-11-22T01:04:24.788Z,7.70
2022-11-22T01:06:53.252Z,7.70
2022-11-22T01:09:22.699Z,7.60
2022-11-22T01:11:53.102Z,7.70
2022-11-22T01:14:24.341Z,7.70
2022-11-22T01:16:54.147Z,7.60
2022-11-22T01:19:28.437Z,7.70
2022-11-22T01:22:02.377Z,7.70
2022-11-22T01:24:42.498Z,7.70
2022-11-22T01:27:13.766Z,7.70
2022-11-22T01:29:44.948Z,7.70
2022-11-22T01:32:20.024Z,7.70
2022-11-22T01:34:50.008Z,7.70
2022-11-22T01:37:19.444Z,7.70
2022-11-22T01:40:10.069Z,7.70
2022-11-22T01:42:50.208Z,7.60
2022-11-22T01:45:40.615Z,7.60
2022-11-22T01:48:19.161Z,7.50
2022-11-22T01:50:56.236Z,7.40
2022-11-22T01:53:29.819Z,7.40
2022-11-22T01:55:58.337Z,7.40
2022-11-22T01:58:29.976Z,7.30
2022-11-22T02:01:01.528Z,7.30
2022-11-22T02:03:31.518Z,7.30
2022-11-22T02:06:00.390Z,7.20
2022-11-22T02:08:31.372Z,7.20
2022-11-22T02:11:05.949Z,7.20
2022-11-22T02:13:38.764Z,7.20
2022-11-22T02:16:09.224Z,7.20
2022-11-22T02:18:38.985Z,7.20
2022-11-22T02:21:11.404Z,7.20
2022-11-22T02:23:58.297Z,7.20
2022-11-22T02:26:34.106Z,7.20
2022-11-22T02:29:10.390Z,7.20
2022-11-22T02:31:46.306Z,7.20
2022-11-22T02:34:17.391Z,7.20
2022-11-22T02:36:50.395Z,7.20
2022-11-22T02:39:24.807Z,7.20
2022-11-22T02:41:56.925Z,7.20
2022-11-22T02:44:25.480Z,7.10
2022-11-22T02:47:04.421Z,7.20
2022-11-22T02:49:32.787Z,7.10
2022-11-22T02:52:01.445Z,7.10
2022-11-22T02:54:29.679Z,7.00
2022-11-22T02:57:01.418Z,7.00
2022-11-22T02:59:29.877Z,7.00
2022-11-22T03:02:02.973Z,7.00
2022-11-22T03:04:33.443Z,7.00
2022-11-22T03:07:03.095Z,6.90
2022-11-22T03:09:32.492Z,6.90
2022-11-22T03:12:06.691Z,6.90
2022-11-22T03:14:36.659Z,6.90
2022-11-22T03:17:06.127Z,6.80
2022-11-22T03:19:34.538Z,6.80
2022-11-22T03:22:02.932Z,6.80
2022-11-22T03:24:31.362Z,6.80
2022-11-22T03:27:01.164Z,6.70
2022-11-22T03:29:32.745Z,6.70
2022-11-22T03:32:01.362Z,6.60
2022-11-22T03:34:29.831Z,6.60
2022-11-22T03:37:04.476Z,6.60
2022-11-22T03:39:35.657Z,6.60
2022-11-22T03:42:08.283Z,6.60
2022-11-22T03:44:38.618Z,6.60
2022-11-22T03:47:07.109Z,6.50
2022-11-22T03:49:53.843Z,6.50
2022-11-22T03:52:25.834Z,6.50
2022-11-22T03:54:54.247Z,6.50
2022-11-22T03:57:26.438Z,6.40
2022-11-22T03:59:54.834Z,6.40
2022-11-22T04:02:27.664Z,6.40
2022-11-22T04:04:59.427Z,6.40
2022-11-22T04:07:36.499Z,6.40
2022-11-22T04:10:05.159Z,6.30
2022-11-22T04:12:39.039Z,6.30
2022-11-22T04:15:07.002Z,6.30
2022-11-22T04:17:41.906Z,6.30
2022-11-22T04:20:29.730Z,6.30
2022-11-22T04:22:58.236Z,6.20
2022-11-22T04:25:25.676Z,6.30
2022-11-22T04:28:02.401Z,6.20
2022-11-22T04:30:44.522Z,6.20
2022-11-22T04:33:15.591Z,6.10
2022-11-22T04:35:45.609Z,6.10
2022-11-22T04:38:17.234Z,6.10
2022-11-22T04:40:48.222Z,6.10
2022-11-22T04:43:38.280Z,6.00
2022-11-22T04:46:06.653Z,6.00
2022-11-22T04:48:46.125Z,6.00
2022-11-22T04:51:34.011Z,5.90
2022-11-22T04:54:02.250Z,5.90
2022-11-22T04:56:30.564Z,5.90
2022-11-22T04:59:08.075Z,5.80
2022-11-22T05:01:36.523Z,5.80
2022-11-22T05:04:05.448Z,5.70
2022-11-22T05:06:33.721Z,5.70
2022-11-22T05:09:03.116Z,5.70
2022-11-22T05:11:31.784Z,5.70
2022-11-22T05:14:01.811Z,5.60
2022-11-22T05:16:31.579Z,5.70
2022-11-22T05:19:03.371Z,5.70
2022-11-22T05:21:38.010Z,5.70
2022-11-22T05:24:06.171Z,5.70
2022-11-22T05:26:46.946Z,5.70
2022-11-22T05:29:17.679Z,5.80
2022-11-22T05:31:51.471Z,5.80
2022-11-22T05:34:19.902Z,5.80
2022-11-22T05:36:56.871Z,5.90
2022-11-22T05:39:29.032Z,5.90
2022-11-22T05:42:03.386Z,5.90
2022-11-22T05:44:37.512Z,5.90
2022-11-22T05:47:20.596Z,6.00
2022-11-22T05:49:55.885Z,6.00
2022-11-22T05:52:34.874Z,6.00
2022-11-22T05:55:15.159Z,6.10
2022-11-22T05:57:53.091Z,6.10
2022-11-22T06:00:38.346Z,6.10
2022-11-22T06:03:28.031Z,6.20
2022-11-22T06:06:00.086Z,6.20
2022-11-22T06:11:36.385Z,6.20
2022-11-22T06:14:15.171Z,6.20
2022-11-22T06:16:51.835Z,6.20
2022-11-22T06:19:35.337Z,6.20
2022-11-22T06:22:13.047Z,6.10
2022-11-22T06:24:50.403Z,6.10
2022-11-22T06:27:28.282Z,6.00
2022-11-22T06:30:14.683Z,6.00
2022-11-22T06:32:45.752Z,6.00
2022-11-22T06:35:16.948Z,6.00
2022-11-22T06:37:46.518Z,6.00
2022-11-22T06:40:16.708Z,6.10
2022-11-22T06:42:48.025Z,6.10
2022-11-22T06:45:27.938Z,6.10
2022-11-22T06:47:56.256Z,6.10
2022-11-22T06:50:26.072Z,6.20
2022-11-22T06:53:00.634Z,6.20
2022-11-22T06:55:49.717Z,6.20
2022-11-22T06:58:17.258Z,6.20
2022-11-22T07:00:45.586Z,6.20
2022-11-22T07:03:16.863Z,6.20
2022-11-22T07:05:59.345Z,6.20
2022-11-22T07:08:30.558Z,6.20
2022-11-22T07:11:03.409Z,6.20
2022-11-22T07:13:36.015Z,6.20
2022-11-22T07:16:05.164Z,6.20
2022-11-22T07:18:33.601Z,6.10
2022-11-22T07:21:10.908Z,6.20
2022-11-22T07:23:44.802Z,6.20
2022-11-22T07:26:20.248Z,6.20
2022-11-22T07:28:49.131Z,6.20
2022-11-22T07:31:17.799Z,6.20
2022-11-22T07:33:54.938Z,6.20
2022-11-22T07:36:25.369Z,6.20
2022-11-22T07:38:53.827Z,6.20
2022-11-22T07:41:28.375Z,6.20
2022-11-22T07:43:56.791Z,6.20
2022-11-22T07:46:29.807Z,6.20
2022-11-22T07:48:58.315Z,6.10
2022-11-22T07:51:31.158Z,6.20
2022-11-22T07:54:05.739Z,6.20
2022-11-22T07:56:40.255Z,6.20
2022-11-22T07:59:08.521Z,6.20
2022-11-22T08:01:40.264Z,6.20
2022-11-22T08:04:08.614Z,6.20
2022-11-22T08:06:43.326Z,6.30
2022-11-22T08:09:12.038Z,6.30
2022-11-22T08:11:53.105Z,6.40
2022-11-22T08:14:21.614Z,6.40
2022-11-22T08:16:50.075Z,6.40
2022-11-22T08:19:18.564Z,6.40
2022-11-22T08:21:58.584Z,6.50
2022-11-22T08:24:27.478Z,6.50
2022-11-22T08:26:57.596Z,6.50
2022-11-22T08:29:29.443Z,6.50
2022-11-22T08:31:59.327Z,6.50
2022-11-22T08:34:31.558Z,6.60
2022-11-22T08:37:02.585Z,6.60
2022-11-22T08:39:33.540Z,6.60
2022-11-22T08:42:02.989Z,6.60
2022-11-22T08:44:35.977Z,6.70
2022-11-22T08:47:04.293Z,6.70
2022-11-22T08:49:34.835Z,6.70
2022-11-22T08:52:13.683Z,6.70
2022-11-22T08:54:41.969Z,6.70
2022-11-22T08:57:10.253Z,6.70
2022-11-22T08:59:38.676Z,6.80
2022-11-22T09:02:08.076Z,6.80
2022-11-22T09:04:36.488Z,6.80
2022-11-22T09:09:54.930Z,6.80
2022-11-22T09:12:53.314Z,6.80
2022-11-22T09:15:21.584Z,6.90
2022-11-22T09:17:49.792Z,6.90
2022-11-22T09:20:18.468Z,6.90
2022-11-22T09:22:58.635Z,7.00
2022-11-22T09:25:26.985Z,7.00
2022-11-22T09:27:55.246Z,7.00
2022-11-22T09:30:24.642Z,7.00
2022-11-22T09:32:58.761Z,7.10
2022-11-22T09:35:39.901Z,7.10
2022-11-22T09:38:12.566Z,7.20
2022-11-22T09:40:40.869Z,7.20
2022-11-22T09:43:20.039Z,7.20
2022-11-22T09:46:20.112Z,7.20
2022-11-22T09:49:00.486Z,7.20
2022-11-22T09:51:36.429Z,7.20
2022-11-22T09:54:13.392Z,7.20
2022-11-22T09:56:51.422Z,7.30
2022-11-22T09:59:21.732Z,7.30
2022-11-22T10:01:58.736Z,7.30
2022-11-22T10:04:31.432Z,7.30
2022-11-22T10:07:03.920Z,7.30
2022-11-22T10:09:45.567Z,7.30
2022-11-22T10:12:20.407Z,7.30
2022-11-22T10:14:53.081Z,7.40
2022-11-22T10:17:43.544Z,7.40
2022-11-22T10:20:18.676Z,7.40
2022-11-22T10:23:09.156Z,7.40
2022-11-22T10:25:49.561Z,7.50
2022-11-22T10:28:19.535Z,7.50
2022-11-22T10:30:51.998Z,7.50
2022-11-22T10:33:34.113Z,7.50
2022-11-22T10:36:25.200Z,7.60
2022-11-22T10:39:08.660Z,7.60
2022-11-22T10:41:50.696Z,7.60
2022-11-22T10:44:32.123Z,7.60
2022-11-22T10:47:19.496Z,7.60
2022-11-22T10:50:05.127Z,7.60
2022-11-22T10:52:41.896Z,7.60
2022-11-22T10:55:23.574Z,7.60
2022-11-22T10:58:01.561Z,7.60
2022-11-22T11:00:31.356Z,7.70
2022-11-22T11:03:26.265Z,7.70
2022-11-22T11:11:38.967Z,7.90
2022-11-22T11:14:27.131Z,7.90
2022-11-22T11:16:59.045Z,7.90
2022-11-22T11:19:28.237Z,7.90
2022-11-22T11:22:06.375Z,7.80
2022-11-22T11:24:34.705Z,7.80
2022-11-22T11:27:04.306Z,7.80
2022-11-22T11:29:48.858Z,7.80
2022-11-22T11:32:23.796Z,7.80
2022-11-22T11:34:55.037Z,7.80
2022-11-22T11:37:25.978Z,7.80
2022-11-22T11:39:59.279Z,7.80
2022-11-22T11:42:32.749Z,7.80
2022-11-22T11:45:44.985Z,7.80
2022-11-22T11:48:38.310Z,7.80
2022-11-22T11:51:18.136Z,7.80
2022-11-22T11:54:02.504Z,7.80
2022-11-22T11:56:49.040Z,7.80
2022-11-22T11:59:20.216Z,7.90
2022-11-22T12:01:59.635Z,8.00
2022-11-22T12:04:33.276Z,8.00
2022-11-22T12:07:18.788Z,8.10
2022-11-22T12:09:52.293Z,8.10
2022-11-22T12:12:39.325Z,8.20
2022-11-22T12:15:20.912Z,8.30
2022-11-22T12:18:27.891Z,8.40
2022-11-22T12:20:59.624Z,8.40
2022-11-22T12:23:39.193Z,8.50
2022-11-22T12:26:26.255Z,8.50
2022-11-22T12:29:04.203Z,8.50
2022-11-22T12:31:38.279Z,8.60
2022-11-22T12:34:18.737Z,8.60
2022-11-22T12:36:48.986Z,8.60
2022-11-22T12:39:20.498Z,8.60
2022-11-22T12:41:53.183Z,8.60
2022-11-22T12:44:36.328Z,8.60
2022-11-22T12:47:10.187Z,8.60
2022-11-22T12:49:46.103Z,8.50
2022-11-22T12:52:26.990Z,8.50
2022-11-22T12:55:04.610Z,8.50
2022-11-22T12:57:47.807Z,8.50
2022-11-22T13:00:20.147Z,8.60
2022-11-22T13:02:58.941Z,8.60
2022-11-22T13:05:30.467Z,8.60
2022-11-22T13:08:07.708Z,8.60
2022-11-22T13:10:50.860Z,8.60
2022-11-22T13:13:42.065Z,8.60
2022-11-22T13:16:15.885Z,8.70
2022-11-22T13:18:52.268Z,8.70
2022-11-22T13:21:55.518Z,8.70
2022-11-22T13:27:33.546Z,8.70
2022-11-22T13:30:26.646Z,8.70
2022-11-22T13:33:07.279Z,8.70
2022-11-22T13:35:42.039Z,8.70
2022-11-22T13:38:28.304Z,8.80
2022-11-22T13:41:00.843Z,8.80
2022-11-22T13:44:01.598Z,8.70
2022-11-22T13:47:00.206Z,8.70
2022-11-22T13:49:49.427Z,8.70
2022-11-22T13:53:00.681Z,8.70
2022-11-22T13:55:42.460Z,8.70
2022-11-22T13:58:59.297Z,8.70
2022-11-22T14:02:07.548Z,8.80
2022-11-22T14:04:51.113Z,8.70
2022-11-22T14:07:39.677Z,8.70
2022-11-22T14:10:43.181Z,8.70
2022-11-22T14:13:51.595Z,8.70
2022-11-22T14:36:27.611Z,8.70
2022-11-22T16:13:32.480Z,8.60
2022-11-22T16:31:25.256Z,8.60
2022-11-22T16:37:43.559Z,8.60
2022-11-22T16:43:21.805Z,8.50
2022-11-22T16:49:03.303Z,8.50
2022-11-22T16:52:05.472Z,8.50
2022-11-22T16:54:38.578Z,8.50
2022-11-22T16:57:43.815Z,8.50
2022-11-22T17:01:14.909Z,8.50
2022-11-22T17:03:53.915Z,8.60
2022-11-22T17:06:31.789Z,8.60
2022-11-22T17:09:08.694Z,8.60
2022-11-22T17:11:52.804Z,8.60
2022-11-22T17:14:53.392Z,8.60
2022-11-22T17:18:34.729Z,8.60
2022-11-22T17:22:34.185Z,8.60
2022-11-22T17:25:00.477Z,8.50
2022-11-22T17:28:39.916Z,8.60
2022-11-22T17:31:24.856Z,8.50
2022-11-22T17:34:54.354Z,8.60
2022-11-22T17:37:24.102Z,8.60
2022-11-22T17:40:00.664Z,8.60
2022-11-22T17:45:55.072Z,8.60
2022-11-22T17:49:15.487Z,8.50
2022-11-22T17:51:53.253Z,8.50
2022-11-22T17:55:18.834Z,8.40
2022-11-22T17:58:01.070Z,8.40
2022-11-22T18:00:53.295Z,8.30
2022-11-22T18:03:28.561Z,8.40
2022-11-22T18:06:08.070Z,8.40
2022-11-22T18:08:47.028Z,8.40
2022-11-22T18:11:25.449Z,8.40
2022-11-22T18:14:12.098Z,8.50
2022-11-22T18:16:51.167Z,8.50
2022-11-22T18:19:31.665Z,8.60
2022-11-22T18:22:28.769Z,8.50
2022-11-22T18:25:05.801Z,8.60
2022-11-22T18:27:42.156Z,8.60
2022-11-22T18:30:16.699Z,8.60
2022-11-22T18:32:46.691Z,8.60
2022-11-22T18:35:21.524Z,8.60
2022-11-22T18:37:56.052Z,8.60
2022-11-22T18:43:28.757Z,8.70
2022-11-22T18:46:07.613Z,8.70
2022-11-22T18:48:49.229Z,8.70
2022-11-22T18:51:48.933Z,8.80
2022-11-22T18:54:31.839Z,8.80
2022-11-22T18:57:00.452Z,8.80
2022-11-22T18:59:29.065Z,8.90
2022-11-22T19:02:15.039Z,8.90
2022-11-22T19:04:45.243Z,8.90
2022-11-22T19:07:16.698Z,8.90
2022-11-22T19:09:52.014Z,8.90
2022-11-22T19:12:31.960Z,8.90
2022-11-22T19:15:03.725Z,8.90
2022-11-22T19:17:35.022Z,8.90
2022-11-22T19:20:32.063Z,8.90
2022-11-22T19:22:58.796Z,8.90
2022-11-22T19:25:27.037Z,9.00
2022-11-22T19:27:55.293Z,8.90
2022-11-22T19:30:27.132Z,9.00
2022-11-22T19:33:17.449Z,9.00
2022-11-22T19:36:03.876Z,9.00
2022-11-22T19:38:32.472Z,9.00
2022-11-22T19:41:02.055Z,9.00
2022-11-22T19:43:32.133Z,9.00
2022-11-22T19:46:02.104Z,9.00
2022-11-22T19:48:31.969Z,9.00
2022-11-22T19:51:00.393Z,9.00
2022-11-22T19:53:31.107Z,9.00
2022-11-22T19:56:03.528Z,8.90
2022-11-22T19:58:34.953Z,8.90
2022-11-22T20:01:10.166Z,8.90
2022-11-22T20:03:43.130Z,9.00
2022-11-22T20:06:14.606Z,8.90
2022-11-22T20:08:45.999Z,8.90
2022-11-22T20:11:16.398Z,8.90
2022-11-22T20:13:50.720Z,8.90
2022-11-22T20:16:35.145Z,8.90
2022-11-22T20:19:07.000Z,8.90
2022-11-22T20:21:39.997Z,8.90
2022-11-22T20:24:13.674Z,8.90
2022-11-22T20:26:51.592Z,9.00
2022-11-22T20:29:26.645Z,9.00
2022-11-22T20:32:07.292Z,9.00
2022-11-22T20:34:37.087Z,9.00
2022-11-22T20:37:05.480Z,9.10
2022-11-22T20:39:36.505Z,9.10
2022-11-22T20:42:33.040Z,9.10
2022-11-22T20:44:56.560Z,9.10
2022-11-22T20:47:26.773Z,9.10
2022-11-22T20:49:57.447Z,9.10
2022-11-22T20:52:30.534Z,9.10
2022-11-22T20:55:04.875Z,9.10
2022-11-22T20:57:33.759Z,9.10
2022-11-22T21:00:12.653Z,9.10
2022-11-22T21:02:49.942Z,9.10
2022-11-22T21:05:32.057Z,9.10
2022-11-22T21:08:12.727Z,9.10
2022-11-22T21:10:45.351Z,9.10
2022-11-22T21:13:26.360Z,9.00
2022-11-22T21:16:21.770Z,9.10
2022-11-22T21:18:57.854Z,9.10
2022-11-22T21:21:28.604Z,9.10
2022-11-22T21:23:59.871Z,9.10
2022-11-22T21:26:34.703Z,9.10
2022-11-22T21:29:07.036Z,9.10
2022-11-22T21:31:37.558Z,9.10
2022-11-22T21:34:11.286Z,9.10
2022-11-22T21:36:42.190Z,9.10
2022-11-22T21:39:10.472Z,9.20
2022-11-22T21:41:40.579Z,9.10
2022-11-22T21:44:12.764Z,9.20
2022-11-22T21:46:41.055Z,9.20
2022-11-22T21:49:09.370Z,9.20
2022-11-22T21:51:37.566Z,9.20
2022-11-22T21:54:07.465Z,9.20
2022-11-22T21:56:38.711Z,9.20
2022-11-22T21:59:07.038Z,9.20
2022-11-22T22:01:35.367Z,9.20
2022-11-22T22:04:03.872Z,9.30
2022-11-22T22:06:32.213Z,9.20
2022-11-22T22:09:00.732Z,9.30
2022-11-22T22:11:30.532Z,9.30
2022-11-22T22:13:59.282Z,9.20
2022-11-22T22:16:27.499Z,9.30
2022-11-22T22:18:55.826Z,9.30
2022-11-22T22:21:24.236Z,9.30
2022-11-22T22:23:53.659Z,9.30
2022-11-22T22:26:25.578Z,9.30
2022-11-22T22:28:55.346Z,9.30
2022-11-22T22:31:24.157Z,9.30
2022-11-22T22:33:54.366Z,9.30
2022-11-22T22:36:26.507Z,9.30
2022-11-22T22:38:55.195Z,9.30
2022-11-22T22:41:23.454Z,9.30
2022-11-22T22:43:51.708Z,9.30
2022-11-22T22:46:24.851Z,9.30
2022-11-22T22:48:53.470Z,9.40
2022-11-22T22:51:26.208Z,9.30
2022-11-22T22:54:05.145Z,9.40
2022-11-22T22:56:33.486Z,9.40
2022-11-22T22:59:01.749Z,9.40
2022-11-22T23:01:31.843Z,9.40
2022-11-22T23:04:00.843Z,9.40
2022-11-22T23:06:32.813Z,9.30
2022-11-22T23:09:02.254Z,9.30
2022-11-22T23:11:45.291Z,9.30
2022-11-22T23:14:14.134Z,9.30
2022-11-22T23:16:57.310Z,9.30
2022-11-22T23:19:31.777Z,9.30
2022-11-22T23:22:01.083Z,9.30
2022-11-22T23:24:31.645Z,9.30
2022-11-22T23:27:01.236Z,9.30
2022-11-22T23:29:29.763Z,9.30
2022-11-22T23:31:59.721Z,9.30
2022-11-22T23:34:28.146Z,9.30
2022-11-22T23:36:56.485Z,9.30
2022-11-22T23:39:25.090Z,9.30
2022-11-22T23:41:53.420Z,9.30
2022-11-22T23:44:21.679Z,9.30
2022-11-22T23:46:52.649Z,9.30
2022-11-22T23:49:26.244Z,9.20
2022-11-22T23:51:54.532Z,9.20
2022-11-22T23:54:25.233Z,9.10
2022-11-22T23:56:56.119Z,9.10
2022-11-22T23:59:28.331Z,9.10
